sensor_id;sensor_type;location;lat;lon;timestamp;temperature;humidity
45983;DHT22;31711;47.158;7.346;2023-06-14T00:01:06;16.00;77.10
45983;DHT22;31711;47.158;7.346;2023-06-14T00:03:32;15.90;77.60
45983;DHT22;31711;47.158;7.346;2023-06-14T00:05:58;15.80;77.10
45983;DHT22;31711;47.158;7.346;2023-06-14T00:08:24;15.80;77.30
45983;DHT22;31711;47.158;7.346;2023-06-14T00:10:51;15.90;74.60
45983;DHT22;31711;47.158;7.346;2023-06-14T00:13:17;15.90;74.50
45983;DHT22;31711;47.158;7.346;2023-06-14T00:15:44;16.00;73.90
45983;DHT22;31711;47.158;7.346;2023-06-14T00:18:10;16.00;74.10
45983;DHT22;31711;47.158;7.346;2023-06-14T00:20:37;16.00;73.40
45983;DHT22;31711;47.158;7.346;2023-06-14T00:23:03;16.10;73.30
45983;DHT22;31711;47.158;7.346;2023-06-14T00:25:29;16.20;72.60
45983;DHT22;31711;47.158;7.346;2023-06-14T00:27:56;16.30;72.50
45983;DHT22;31711;47.158;7.346;2023-06-14T00:30:22;16.30;72.00
45983;DHT22;31711;47.158;7.346;2023-06-14T00:32:49;16.40;71.80
45983;DHT22;31711;47.158;7.346;2023-06-14T00:35:15;16.40;71.80
45983;DHT22;31711;47.158;7.346;2023-06-14T00:37:41;16.40;71.40
45983;DHT22;31711;47.158;7.346;2023-06-14T00:40:08;16.40;71.90
45983;DHT22;31711;47.158;7.346;2023-06-14T00:42:34;16.40;71.70
45983;DHT22;31711;47.158;7.346;2023-06-14T00:45:00;16.40;71.80
45983;DHT22;31711;47.158;7.346;2023-06-14T00:47:26;16.40;72.10
45983;DHT22;31711;47.158;7.346;2023-06-14T00:49:53;16.30;72.20
45983;DHT22;31711;47.158;7.346;2023-06-14T00:52:21;16.20;72.50
45983;DHT22;31711;47.158;7.346;2023-06-14T00:54:50;16.10;72.60
45983;DHT22;31711;47.158;7.346;2023-06-14T00:57:16;16.10;72.70
45983;DHT22;31711;47.158;7.346;2023-06-14T00:59:45;16.00;73.20
45983;DHT22;31711;47.158;7.346;2023-06-14T01:02:12;16.00;73.10
45983;DHT22;31711;47.158;7.346;2023-06-14T01:04:41;16.00;73.00
45983;DHT22;31711;47.158;7.346;2023-06-14T01:15:18;15.80;73.50
45983;DHT22;31711;47.158;7.346;2023-06-14T01:17:49;15.70;74.50
45983;DHT22;31711;47.158;7.346;2023-06-14T01:20:19;15.60;75.00
45983;DHT22;31711;47.158;7.346;2023-06-14T01:22:55;15.50;75.50
45983;DHT22;31711;47.158;7.346;2023-06-14T01:25:22;15.50;77.30
45983;DHT22;31711;47.158;7.346;2023-06-14T01:28:02;15.40;76.10
45983;DHT22;31711;47.158;7.346;2023-06-14T01:30:30;15.40;75.70
45983;DHT22;31711;47.158;7.346;2023-06-14T01:32:57;15.40;75.10
45983;DHT22;31711;47.158;7.346;2023-06-14T01:35:23;15.50;74.80
45983;DHT22;31711;47.158;7.346;2023-06-14T01:37:51;15.50;74.50
45983;DHT22;31711;47.158;7.346;2023-06-14T01:40:18;15.50;74.50
45983;DHT22;31711;47.158;7.346;2023-06-14T01:42:47;15.50;74.40
45983;DHT22;31711;47.158;7.346;2023-06-14T01:45:15;15.50;74.20
45983;DHT22;31711;47.158;7.346;2023-06-14T01:47:43;15.50;74.40
45983;DHT22;31711;47.158;7.346;2023-06-14T01:50:09;15.50;74.20
45983;DHT22;31711;47.158;7.346;2023-06-14T01:52:37;15.50;73.90
45983;DHT22;31711;47.158;7.346;2023-06-14T01:55:04;15.50;74.20
45983;DHT22;31711;47.158;7.346;2023-06-14T01:57:30;15.40;75.10
45983;DHT22;31711;47.158;7.346;2023-06-14T01:59:56;15.30;78.00
45983;DHT22;31711;47.158;7.346;2023-06-14T02:02:22;15.10;78.80
45983;DHT22;31711;47.158;7.346;2023-06-14T02:04:48;15.00;82.40
45983;DHT22;31711;47.158;7.346;2023-06-14T02:07:14;14.80;83.50
45983;DHT22;31711;47.158;7.346;2023-06-14T02:09:43;14.70;83.80
45983;DHT22;31711;47.158;7.346;2023-06-14T02:12:09;14.60;84.00
45983;DHT22;31711;47.158;7.346;2023-06-14T02:14:36;14.60;85.70
45983;DHT22;31711;47.158;7.346;2023-06-14T02:17:04;14.50;86.00
45983;DHT22;31711;47.158;7.346;2023-06-14T02:19:30;14.30;84.00
45983;DHT22;31711;47.158;7.346;2023-06-14T02:21:56;14.30;83.50
45983;DHT22;31711;47.158;7.346;2023-06-14T02:24:22;14.30;83.60
45983;DHT22;31711;47.158;7.346;2023-06-14T02:26:49;14.30;81.60
45983;DHT22;31711;47.158;7.346;2023-06-14T02:29:16;14.20;83.40
45983;DHT22;31711;47.158;7.346;2023-06-14T02:31:42;14.20;84.30
45983;DHT22;31711;47.158;7.346;2023-06-14T02:34:08;14.10;86.20
45983;DHT22;31711;47.158;7.346;2023-06-14T02:36:35;14.10;87.90
45983;DHT22;31711;47.158;7.346;2023-06-14T02:39:08;14.00;89.00
45983;DHT22;31711;47.158;7.346;2023-06-14T02:41:37;13.80;89.70
45983;DHT22;31711;47.158;7.346;2023-06-14T02:44:04;13.70;90.30
45983;DHT22;31711;47.158;7.346;2023-06-14T02:46:30;13.70;92.20
45983;DHT22;31711;47.158;7.346;2023-06-14T02:48:56;13.60;93.20
45983;DHT22;31711;47.158;7.346;2023-06-14T02:51:22;13.50;93.60
45983;DHT22;31711;47.158;7.346;2023-06-14T02:53:48;13.50;94.00
45983;DHT22;31711;47.158;7.346;2023-06-14T02:56:14;13.40;93.90
45983;DHT22;31711;47.158;7.346;2023-06-14T02:58:43;13.30;95.20
45983;DHT22;31711;47.158;7.346;2023-06-14T03:01:09;13.20;94.70
45983;DHT22;31711;47.158;7.346;2023-06-14T03:03:38;13.20;94.90
45983;DHT22;31711;47.158;7.346;2023-06-14T03:06:04;13.10;94.90
45983;DHT22;31711;47.158;7.346;2023-06-14T03:08:31;13.10;94.40
45983;DHT22;31711;47.158;7.346;2023-06-14T03:11:04;13.10;94.20
45983;DHT22;31711;47.158;7.346;2023-06-14T03:13:37;13.00;93.20
45983;DHT22;31711;47.158;7.346;2023-06-14T03:16:04;12.90;93.40
45983;DHT22;31711;47.158;7.346;2023-06-14T03:18:30;12.90;92.80
45983;DHT22;31711;47.158;7.346;2023-06-14T03:21:04;12.90;93.50
45983;DHT22;31711;47.158;7.346;2023-06-14T03:23:30;12.70;93.80
45983;DHT22;31711;47.158;7.346;2023-06-14T03:25:57;12.70;93.70
45983;DHT22;31711;47.158;7.346;2023-06-14T03:28:23;12.60;93.60
45983;DHT22;31711;47.158;7.346;2023-06-14T03:30:49;12.60;93.20
45983;DHT22;31711;47.158;7.346;2023-06-14T03:33:15;12.50;93.60
45983;DHT22;31711;47.158;7.346;2023-06-14T03:35:41;12.50;93.60
45983;DHT22;31711;47.158;7.346;2023-06-14T03:38:07;12.50;93.40
45983;DHT22;31711;47.158;7.346;2023-06-14T03:40:33;12.50;93.20
45983;DHT22;31711;47.158;7.346;2023-06-14T03:42:59;12.50;92.90
45983;DHT22;31711;47.158;7.346;2023-06-14T03:45:25;12.50;93.00
45983;DHT22;31711;47.158;7.346;2023-06-14T03:47:51;12.40;93.20
45983;DHT22;31711;47.158;7.346;2023-06-14T03:50:18;12.40;93.00
45983;DHT22;31711;47.158;7.346;2023-06-14T03:52:44;12.40;93.40
45983;DHT22;31711;47.158;7.346;2023-06-14T03:55:10;12.30;93.60
45983;DHT22;31711;47.158;7.346;2023-06-14T03:57:38;12.30;93.60
45983;DHT22;31711;47.158;7.346;2023-06-14T04:00:05;12.30;93.40
45983;DHT22;31711;47.158;7.346;2023-06-14T04:02:32;12.30;93.70
45983;DHT22;31711;47.158;7.346;2023-06-14T04:04:57;12.40;93.30
45983;DHT22;31711;47.158;7.346;2023-06-14T04:07:23;12.40;93.90
45983;DHT22;31711;47.158;7.346;2023-06-14T04:09:50;12.40;94.10
45983;DHT22;31711;47.158;7.346;2023-06-14T04:12:16;12.40;93.90
45983;DHT22;31711;47.158;7.346;2023-06-14T04:14:43;12.40;93.70
45983;DHT22;31711;47.158;7.346;2023-06-14T04:17:09;12.50;93.80
45983;DHT22;31711;47.158;7.346;2023-06-14T04:19:35;12.50;94.00
45983;DHT22;31711;47.158;7.346;2023-06-14T04:22:01;12.60;94.00
45983;DHT22;31711;47.158;7.346;2023-06-14T04:24:28;12.70;94.00
45983;DHT22;31711;47.158;7.346;2023-06-14T04:26:58;12.60;95.10
45983;DHT22;31711;47.158;7.346;2023-06-14T04:29:25;12.70;96.20
45983;DHT22;31711;47.158;7.346;2023-06-14T04:31:54;12.80;95.40
45983;DHT22;31711;47.158;7.346;2023-06-14T04:34:20;12.90;96.20
45983;DHT22;31711;47.158;7.346;2023-06-14T04:36:47;13.00;96.40
45983;DHT22;31711;47.158;7.346;2023-06-14T04:39:19;13.10;97.90
45983;DHT22;31711;47.158;7.346;2023-06-14T04:41:46;13.10;99.10
45983;DHT22;31711;47.158;7.346;2023-06-14T04:44:12;13.10;99.00
45983;DHT22;31711;47.158;7.346;2023-06-14T04:46:39;13.20;98.70
45983;DHT22;31711;47.158;7.346;2023-06-14T04:49:17;13.30;97.50
45983;DHT22;31711;47.158;7.346;2023-06-14T04:51:44;13.30;96.60
45983;DHT22;31711;47.158;7.346;2023-06-14T04:54:11;13.40;96.50
45983;DHT22;31711;47.158;7.346;2023-06-14T04:56:41;13.40;97.30
45983;DHT22;31711;47.158;7.346;2023-06-14T04:59:12;13.40;97.80
45983;DHT22;31711;47.158;7.346;2023-06-14T05:01:38;13.50;97.30
45983;DHT22;31711;47.158;7.346;2023-06-14T05:04:04;13.60;96.60
45983;DHT22;31711;47.158;7.346;2023-06-14T05:06:30;13.70;98.10
45983;DHT22;31711;47.158;7.346;2023-06-14T05:08:56;13.80;97.70
45983;DHT22;31711;47.158;7.346;2023-06-14T05:11:23;13.90;97.30
45983;DHT22;31711;47.158;7.346;2023-06-14T05:13:52;14.00;97.40
45983;DHT22;31711;47.158;7.346;2023-06-14T05:16:18;14.10;97.10
45983;DHT22;31711;47.158;7.346;2023-06-14T05:18:46;14.20;96.90
45983;DHT22;31711;47.158;7.346;2023-06-14T05:21:13;14.40;96.60
45983;DHT22;31711;47.158;7.346;2023-06-14T05:23:43;14.40;95.70
45983;DHT22;31711;47.158;7.346;2023-06-14T05:26:10;14.60;95.10
45983;DHT22;31711;47.158;7.346;2023-06-14T05:28:36;14.70;96.00
45983;DHT22;31711;47.158;7.346;2023-06-14T05:31:03;14.70;94.90
45983;DHT22;31711;47.158;7.346;2023-06-14T05:33:29;14.80;95.00
45983;DHT22;31711;47.158;7.346;2023-06-14T05:35:55;14.90;93.40
45983;DHT22;31711;47.158;7.346;2023-06-14T05:38:21;15.00;93.00
45983;DHT22;31711;47.158;7.346;2023-06-14T05:40:47;15.10;94.90
45983;DHT22;31711;47.158;7.346;2023-06-14T05:43:13;15.10;95.80
45983;DHT22;31711;47.158;7.346;2023-06-14T05:45:39;15.30;95.50
45983;DHT22;31711;47.158;7.346;2023-06-14T05:48:05;15.30;94.70
45983;DHT22;31711;47.158;7.346;2023-06-14T05:50:31;15.40;94.40
45983;DHT22;31711;47.158;7.346;2023-06-14T05:52:57;15.60;94.40
45983;DHT22;31711;47.158;7.346;2023-06-14T05:55:23;15.70;94.00
45983;DHT22;31711;47.158;7.346;2023-06-14T05:57:49;15.80;94.30
45983;DHT22;31711;47.158;7.346;2023-06-14T06:00:15;15.90;93.90
45983;DHT22;31711;47.158;7.346;2023-06-14T06:02:42;16.00;94.40
45983;DHT22;31711;47.158;7.346;2023-06-14T06:05:09;16.00;94.10
45983;DHT22;31711;47.158;7.346;2023-06-14T06:07:36;16.10;94.10
45983;DHT22;31711;47.158;7.346;2023-06-14T06:10:04;16.30;93.40
45983;DHT22;31711;47.158;7.346;2023-06-14T06:12:30;16.30;93.80
45983;DHT22;31711;47.158;7.346;2023-06-14T06:14:56;16.40;93.50
45983;DHT22;31711;47.158;7.346;2023-06-14T06:17:22;16.40;93.90
45983;DHT22;31711;47.158;7.346;2023-06-14T06:19:48;16.40;93.30
45983;DHT22;31711;47.158;7.346;2023-06-14T06:22:14;16.60;93.30
45983;DHT22;31711;47.158;7.346;2023-06-14T06:24:40;16.70;92.70
45983;DHT22;31711;47.158;7.346;2023-06-14T06:27:06;16.90;92.80
45983;DHT22;31711;47.158;7.346;2023-06-14T06:29:34;17.00;92.40
45983;DHT22;31711;47.158;7.346;2023-06-14T06:32:01;17.20;91.20
45983;DHT22;31711;47.158;7.346;2023-06-14T06:34:27;17.30;91.90
45983;DHT22;31711;47.158;7.346;2023-06-14T06:36:53;17.40;90.80
45983;DHT22;31711;47.158;7.346;2023-06-14T06:39:19;17.60;90.70
45983;DHT22;31711;47.158;7.346;2023-06-14T06:41:45;17.70;86.10
45983;DHT22;31711;47.158;7.346;2023-06-14T06:44:11;17.70;88.00
45983;DHT22;31711;47.158;7.346;2023-06-14T06:46:38;17.90;86.90
45983;DHT22;31711;47.158;7.346;2023-06-14T06:49:09;18.00;87.60
45983;DHT22;31711;47.158;7.346;2023-06-14T06:51:40;18.20;88.20
45983;DHT22;31711;47.158;7.346;2023-06-14T06:54:07;18.30;89.80
45983;DHT22;31711;47.158;7.346;2023-06-14T06:56:34;18.40;85.90
45983;DHT22;31711;47.158;7.346;2023-06-14T06:59:01;18.50;85.10
45983;DHT22;31711;47.158;7.346;2023-06-14T07:01:26;18.50;84.30
45983;DHT22;31711;47.158;7.346;2023-06-14T07:03:57;18.50;81.80
45983;DHT22;31711;47.158;7.346;2023-06-14T07:06:23;18.40;82.40
45983;DHT22;31711;47.158;7.346;2023-06-14T07:08:52;18.50;82.50
45983;DHT22;31711;47.158;7.346;2023-06-14T07:11:18;18.40;83.40
45983;DHT22;31711;47.158;7.346;2023-06-14T07:13:44;18.60;84.20
45983;DHT22;31711;47.158;7.346;2023-06-14T07:16:11;18.70;80.50
45983;DHT22;31711;47.158;7.346;2023-06-14T07:18:37;18.60;84.20
45983;DHT22;31711;47.158;7.346;2023-06-14T07:21:03;18.80;84.50
45983;DHT22;31711;47.158;7.346;2023-06-14T07:23:29;18.90;81.50
45983;DHT22;31711;47.158;7.346;2023-06-14T07:25:55;18.80;81.40
45983;DHT22;31711;47.158;7.346;2023-06-14T07:28:21;18.90;80.30
45983;DHT22;31711;47.158;7.346;2023-06-14T07:30:47;19.00;81.30
45983;DHT22;31711;47.158;7.346;2023-06-14T07:33:14;19.20;81.80
45983;DHT22;31711;47.158;7.346;2023-06-14T07:35:40;19.30;80.70
45983;DHT22;31711;47.158;7.346;2023-06-14T07:38:06;19.40;81.80
45983;DHT22;31711;47.158;7.346;2023-06-14T07:40:32;19.40;81.50
45983;DHT22;31711;47.158;7.346;2023-06-14T07:42:58;19.60;78.80
45983;DHT22;31711;47.158;7.346;2023-06-14T07:45:24;19.50;79.20
45983;DHT22;31711;47.158;7.346;2023-06-14T07:47:51;19.70;78.60
45983;DHT22;31711;47.158;7.346;2023-06-14T07:50:17;19.80;79.20
45983;DHT22;31711;47.158;7.346;2023-06-14T07:52:44;19.90;78.40
45983;DHT22;31711;47.158;7.346;2023-06-14T07:55:10;19.90;78.10
45983;DHT22;31711;47.158;7.346;2023-06-14T07:57:36;20.00;78.40
45983;DHT22;31711;47.158;7.346;2023-06-14T08:00:03;20.00;76.60
45983;DHT22;31711;47.158;7.346;2023-06-14T08:02:32;20.20;78.50
45983;DHT22;31711;47.158;7.346;2023-06-14T08:04:57;20.30;79.30
45983;DHT22;31711;47.158;7.346;2023-06-14T08:07:24;20.50;79.50
45983;DHT22;31711;47.158;7.346;2023-06-14T08:09:50;20.60;78.20
45983;DHT22;31711;47.158;7.346;2023-06-14T08:12:16;20.70;75.80
45983;DHT22;31711;47.158;7.346;2023-06-14T08:14:42;20.80;77.00
45983;DHT22;31711;47.158;7.346;2023-06-14T08:17:08;21.00;77.50
45983;DHT22;31711;47.158;7.346;2023-06-14T08:19:34;21.20;75.10
45983;DHT22;31711;47.158;7.346;2023-06-14T08:22:02;21.30;74.00
45983;DHT22;31711;47.158;7.346;2023-06-14T08:24:29;21.10;75.10
45983;DHT22;31711;47.158;7.346;2023-06-14T08:26:55;21.30;76.30
45983;DHT22;31711;47.158;7.346;2023-06-14T08:29:22;21.40;73.90
45983;DHT22;31711;47.158;7.346;2023-06-14T08:31:48;21.40;73.70
45983;DHT22;31711;47.158;7.346;2023-06-14T08:34:14;21.60;70.60
45983;DHT22;31711;47.158;7.346;2023-06-14T08:36:40;21.60;72.90
45983;DHT22;31711;47.158;7.346;2023-06-14T08:39:06;21.70;71.30
45983;DHT22;31711;47.158;7.346;2023-06-14T08:41:35;21.60;71.70
45983;DHT22;31711;47.158;7.346;2023-06-14T08:44:01;21.80;70.10
45983;DHT22;31711;47.158;7.346;2023-06-14T08:46:29;22.00;69.50
45983;DHT22;31711;47.158;7.346;2023-06-14T08:48:59;22.00;67.70
45983;DHT22;31711;47.158;7.346;2023-06-14T08:51:28;22.10;68.30
45983;DHT22;31711;47.158;7.346;2023-06-14T08:54:00;22.10;69.50
45983;DHT22;31711;47.158;7.346;2023-06-14T08:56:30;22.10;67.50
45983;DHT22;31711;47.158;7.346;2023-06-14T08:58:58;22.20;66.40
45983;DHT22;31711;47.158;7.346;2023-06-14T09:01:28;22.10;66.20
45983;DHT22;31711;47.158;7.346;2023-06-14T09:03:54;22.20;65.70
45983;DHT22;31711;47.158;7.346;2023-06-14T09:06:23;22.30;65.80
45983;DHT22;31711;47.158;7.346;2023-06-14T09:08:50;22.30;65.20
45983;DHT22;31711;47.158;7.346;2023-06-14T09:11:17;22.40;65.80
45983;DHT22;31711;47.158;7.346;2023-06-14T09:13:46;22.70;66.00
45983;DHT22;31711;47.158;7.346;2023-06-14T09:16:12;22.80;63.60
45983;DHT22;31711;47.158;7.346;2023-06-14T09:18:43;22.70;65.00
45983;DHT22;31711;47.158;7.346;2023-06-14T09:21:11;22.60;65.30
45983;DHT22;31711;47.158;7.346;2023-06-14T09:23:45;22.70;65.60
45983;DHT22;31711;47.158;7.346;2023-06-14T09:26:18;22.60;63.40
45983;DHT22;31711;47.158;7.346;2023-06-14T09:28:50;22.80;66.00
45983;DHT22;31711;47.158;7.346;2023-06-14T09:31:17;22.90;61.70
45983;DHT22;31711;47.158;7.346;2023-06-14T09:33:44;22.70;62.30
45983;DHT22;31711;47.158;7.346;2023-06-14T09:36:17;22.80;64.40
45983;DHT22;31711;47.158;7.346;2023-06-14T09:39:04;22.90;64.60
45983;DHT22;31711;47.158;7.346;2023-06-14T09:41:39;23.10;62.40
45983;DHT22;31711;47.158;7.346;2023-06-14T09:44:09;22.90;62.70
45983;DHT22;31711;47.158;7.346;2023-06-14T09:46:36;23.20;64.50
45983;DHT22;31711;47.158;7.346;2023-06-14T09:49:03;23.20;63.30
45983;DHT22;31711;47.158;7.346;2023-06-14T09:51:30;23.20;65.10
45983;DHT22;31711;47.158;7.346;2023-06-14T09:54:00;23.40;63.40
45983;DHT22;31711;47.158;7.346;2023-06-14T09:58:57;23.50;64.20
45983;DHT22;31711;47.158;7.346;2023-06-14T10:01:25;23.50;61.90
45983;DHT22;31711;47.158;7.346;2023-06-14T10:04:06;23.60;61.50
45983;DHT22;31711;47.158;7.346;2023-06-14T10:06:39;23.60;62.70
45983;DHT22;31711;47.158;7.346;2023-06-14T10:09:08;23.90;62.80
45983;DHT22;31711;47.158;7.346;2023-06-14T10:11:35;23.70;59.70
45983;DHT22;31711;47.158;7.346;2023-06-14T10:14:05;23.70;58.60
45983;DHT22;31711;47.158;7.346;2023-06-14T10:16:34;23.80;60.40
45983;DHT22;31711;47.158;7.346;2023-06-14T10:22:19;24.00;61.40
45983;DHT22;31711;47.158;7.346;2023-06-14T10:24:48;24.20;63.00
45983;DHT22;31711;47.158;7.346;2023-06-14T10:27:16;24.00;62.30
45983;DHT22;31711;47.158;7.346;2023-06-14T10:30:10;23.90;60.80
45983;DHT22;31711;47.158;7.346;2023-06-14T10:33:05;24.20;62.00
45983;DHT22;31711;47.158;7.346;2023-06-14T10:35:32;24.20;62.40
45983;DHT22;31711;47.158;7.346;2023-06-14T10:38:11;24.50;62.70
45983;DHT22;31711;47.158;7.346;2023-06-14T10:40:38;24.30;61.20
45983;DHT22;31711;47.158;7.346;2023-06-14T10:43:24;24.20;61.80
45983;DHT22;31711;47.158;7.346;2023-06-14T10:48:45;24.30;60.60
45983;DHT22;31711;47.158;7.346;2023-06-14T10:51:19;24.40;61.80
45983;DHT22;31711;47.158;7.346;2023-06-14T10:53:49;24.50;62.70
45983;DHT22;31711;47.158;7.346;2023-06-14T10:58:56;24.40;60.60
45983;DHT22;31711;47.158;7.346;2023-06-14T11:01:38;24.50;61.20
45983;DHT22;31711;47.158;7.346;2023-06-14T11:04:11;24.50;60.70
45983;DHT22;31711;47.158;7.346;2023-06-14T11:06:48;24.70;62.00
45983;DHT22;31711;47.158;7.346;2023-06-14T11:09:25;24.60;59.50
45983;DHT22;31711;47.158;7.346;2023-06-14T11:12:02;24.90;60.40
45983;DHT22;31711;47.158;7.346;2023-06-14T11:14:31;25.10;60.50
45983;DHT22;31711;47.158;7.346;2023-06-14T11:16:57;25.00;60.30
45983;DHT22;31711;47.158;7.346;2023-06-14T11:19:24;25.00;62.90
45983;DHT22;31711;47.158;7.346;2023-06-14T11:21:50;25.10;60.40
45983;DHT22;31711;47.158;7.346;2023-06-14T11:24:17;25.30;62.20
45983;DHT22;31711;47.158;7.346;2023-06-14T11:26:43;25.30;59.00
45983;DHT22;31711;47.158;7.346;2023-06-14T11:29:09;25.40;62.70
45983;DHT22;31711;47.158;7.346;2023-06-14T11:31:35;25.10;61.60
45983;DHT22;31711;47.158;7.346;2023-06-14T11:34:01;25.40;60.10
45983;DHT22;31711;47.158;7.346;2023-06-14T11:36:30;25.60;58.70
45983;DHT22;31711;47.158;7.346;2023-06-14T11:39:01;25.40;57.20
45983;DHT22;31711;47.158;7.346;2023-06-14T11:41:36;25.80;60.00
45983;DHT22;31711;47.158;7.346;2023-06-14T11:44:03;25.70;59.30
45983;DHT22;31711;47.158;7.346;2023-06-14T11:46:29;26.00;62.40
45983;DHT22;31711;47.158;7.346;2023-06-14T11:48:55;26.20;63.70
45983;DHT22;31711;47.158;7.346;2023-06-14T11:51:21;26.30;59.10
45983;DHT22;31711;47.158;7.346;2023-06-14T11:53:47;26.20;59.20
45983;DHT22;31711;47.158;7.346;2023-06-14T11:56:14;26.40;61.60
45983;DHT22;31711;47.158;7.346;2023-06-14T11:58:40;25.90;58.50
45983;DHT22;31711;47.158;7.346;2023-06-14T12:01:08;26.10;59.30
45983;DHT22;31711;47.158;7.346;2023-06-14T12:03:34;26.30;59.10
45983;DHT22;31711;47.158;7.346;2023-06-14T12:06:05;26.50;61.30
45983;DHT22;31711;47.158;7.346;2023-06-14T12:08:39;26.30;60.10
45983;DHT22;31711;47.158;7.346;2023-06-14T12:11:07;26.60;59.70
45983;DHT22;31711;47.158;7.346;2023-06-14T12:13:38;26.80;59.50
45983;DHT22;31711;47.158;7.346;2023-06-14T12:16:07;26.50;58.00
45983;DHT22;31711;47.158;7.346;2023-06-14T12:18:35;26.60;60.20
45983;DHT22;31711;47.158;7.346;2023-06-14T12:21:06;27.10;60.30
45983;DHT22;31711;47.158;7.346;2023-06-14T12:23:42;26.90;60.90
45983;DHT22;31711;47.158;7.346;2023-06-14T12:26:09;26.90;59.40
45983;DHT22;31711;47.158;7.346;2023-06-14T12:28:35;27.20;59.40
45983;DHT22;31711;47.158;7.346;2023-06-14T12:31:01;27.40;58.30
45983;DHT22;31711;47.158;7.346;2023-06-14T12:33:27;26.90;59.80
45983;DHT22;31711;47.158;7.346;2023-06-14T12:35:55;26.70;58.80
45983;DHT22;31711;47.158;7.346;2023-06-14T12:38:23;27.00;58.90
45983;DHT22;31711;47.158;7.346;2023-06-14T12:40:49;27.50;60.70
45983;DHT22;31711;47.158;7.346;2023-06-14T12:43:15;27.60;58.60
45983;DHT22;31711;47.158;7.346;2023-06-14T12:45:41;27.50;57.60
45983;DHT22;31711;47.158;7.346;2023-06-14T12:48:07;27.30;58.00
45983;DHT22;31711;47.158;7.346;2023-06-14T12:50:34;27.40;59.20
45983;DHT22;31711;47.158;7.346;2023-06-14T12:53:00;27.70;58.90
45983;DHT22;31711;47.158;7.346;2023-06-14T12:55:26;27.40;58.90
45983;DHT22;31711;47.158;7.346;2023-06-14T12:57:52;27.60;57.90
45983;DHT22;31711;47.158;7.346;2023-06-14T13:00:19;27.70;59.60
45983;DHT22;31711;47.158;7.346;2023-06-14T13:02:46;28.00;59.80
45983;DHT22;31711;47.158;7.346;2023-06-14T13:05:12;28.30;58.40
45983;DHT22;31711;47.158;7.346;2023-06-14T13:07:38;27.90;58.00
45983;DHT22;31711;47.158;7.346;2023-06-14T13:10:04;27.90;59.30
45983;DHT22;31711;47.158;7.346;2023-06-14T13:12:30;28.10;58.40
45983;DHT22;31711;47.158;7.346;2023-06-14T13:14:56;27.90;57.30
45983;DHT22;31711;47.158;7.346;2023-06-14T13:17:22;28.10;58.40
45983;DHT22;31711;47.158;7.346;2023-06-14T13:19:48;27.80;57.50
45983;DHT22;31711;47.158;7.346;2023-06-14T13:22:14;28.30;59.70
45983;DHT22;31711;47.158;7.346;2023-06-14T13:24:40;28.10;59.00
45983;DHT22;31711;47.158;7.346;2023-06-14T13:27:06;28.40;57.40
45983;DHT22;31711;47.158;7.346;2023-06-14T13:29:32;28.00;56.90
45983;DHT22;31711;47.158;7.346;2023-06-14T13:32:02;28.30;57.50
45983;DHT22;31711;47.158;7.346;2023-06-14T13:34:28;28.00;57.80
45983;DHT22;31711;47.158;7.346;2023-06-14T13:36:54;28.30;58.40
45983;DHT22;31711;47.158;7.346;2023-06-14T13:39:20;28.40;58.00
45983;DHT22;31711;47.158;7.346;2023-06-14T13:41:46;28.50;57.00
45983;DHT22;31711;47.158;7.346;2023-06-14T13:44:11;28.40;59.30
45983;DHT22;31711;47.158;7.346;2023-06-14T13:46:40;28.20;58.70
45983;DHT22;31711;47.158;7.346;2023-06-14T13:49:08;27.80;57.80
45983;DHT22;31711;47.158;7.346;2023-06-14T13:51:34;27.30;57.20
45983;DHT22;31711;47.158;7.346;2023-06-14T13:54:00;27.80;59.60
45983;DHT22;31711;47.158;7.346;2023-06-14T13:56:26;27.80;57.60
45983;DHT22;31711;47.158;7.346;2023-06-14T13:58:53;28.00;59.60
45983;DHT22;31711;47.158;7.346;2023-06-14T14:01:19;27.80;57.20
45983;DHT22;31711;47.158;7.346;2023-06-14T14:03:48;27.70;57.30
45983;DHT22;31711;47.158;7.346;2023-06-14T14:06:15;28.00;57.80
45983;DHT22;31711;47.158;7.346;2023-06-14T14:08:42;28.00;57.30
45983;DHT22;31711;47.158;7.346;2023-06-14T14:11:09;28.00;58.90
45983;DHT22;31711;47.158;7.346;2023-06-14T14:13:36;28.00;57.60
45983;DHT22;31711;47.158;7.346;2023-06-14T14:16:02;28.00;56.80
45983;DHT22;31711;47.158;7.346;2023-06-14T14:18:29;27.70;56.20
45983;DHT22;31711;47.158;7.346;2023-06-14T14:20:55;27.70;58.50
45983;DHT22;31711;47.158;7.346;2023-06-14T14:23:21;28.10;58.20
45983;DHT22;31711;47.158;7.346;2023-06-14T14:25:48;28.30;57.80
45983;DHT22;31711;47.158;7.346;2023-06-14T14:28:14;28.10;57.70
45983;DHT22;31711;47.158;7.346;2023-06-14T14:30:42;27.90;58.50
45983;DHT22;31711;47.158;7.346;2023-06-14T14:33:08;28.00;58.30
45983;DHT22;31711;47.158;7.346;2023-06-14T14:35:34;27.80;57.70
45983;DHT22;31711;47.158;7.346;2023-06-14T14:38:00;27.90;58.40
45983;DHT22;31711;47.158;7.346;2023-06-14T14:40:26;27.90;58.80
45983;DHT22;31711;47.158;7.346;2023-06-14T14:42:52;28.00;57.60
45983;DHT22;31711;47.158;7.346;2023-06-14T14:45:18;27.90;57.50
45983;DHT22;31711;47.158;7.346;2023-06-14T14:47:44;27.90;59.80
45983;DHT22;31711;47.158;7.346;2023-06-14T14:50:10;28.00;59.40
45983;DHT22;31711;47.158;7.346;2023-06-14T14:52:36;28.00;59.40
45983;DHT22;31711;47.158;7.346;2023-06-14T14:55:02;28.20;60.10
45983;DHT22;31711;47.158;7.346;2023-06-14T14:57:28;28.00;59.40
45983;DHT22;31711;47.158;7.346;2023-06-14T14:59:55;27.80;59.10
45983;DHT22;31711;47.158;7.346;2023-06-14T15:02:21;27.60;57.70
45983;DHT22;31711;47.158;7.346;2023-06-14T15:04:49;27.70;58.90
45983;DHT22;31711;47.158;7.346;2023-06-14T15:07:15;27.80;60.40
45983;DHT22;31711;47.158;7.346;2023-06-14T15:09:41;27.60;61.00
45983;DHT22;31711;47.158;7.346;2023-06-14T15:12:08;27.50;61.30
45983;DHT22;31711;47.158;7.346;2023-06-14T15:14:34;27.50;60.30
45983;DHT22;31711;47.158;7.346;2023-06-14T15:17:00;27.60;61.10
45983;DHT22;31711;47.158;7.346;2023-06-14T15:19:27;27.70;60.90
45983;DHT22;31711;47.158;7.346;2023-06-14T15:21:53;27.60;59.70
45983;DHT22;31711;47.158;7.346;2023-06-14T15:24:19;27.60;59.10
45983;DHT22;31711;47.158;7.346;2023-06-14T15:26:45;27.40;60.20
45983;DHT22;31711;47.158;7.346;2023-06-14T15:29:11;27.40;62.20
45983;DHT22;31711;47.158;7.346;2023-06-14T15:31:37;27.20;59.60
45983;DHT22;31711;47.158;7.346;2023-06-14T15:34:03;27.20;60.10
45983;DHT22;31711;47.158;7.346;2023-06-14T15:36:29;27.20;59.00
45983;DHT22;31711;47.158;7.346;2023-06-14T15:38:55;27.10;58.50
45983;DHT22;31711;47.158;7.346;2023-06-14T15:41:21;27.20;61.00
45983;DHT22;31711;47.158;7.346;2023-06-14T15:43:47;27.10;59.20
45983;DHT22;31711;47.158;7.346;2023-06-14T15:46:13;27.00;59.10
45983;DHT22;31711;47.158;7.346;2023-06-14T15:48:39;27.00;59.20
45983;DHT22;31711;47.158;7.346;2023-06-14T15:51:05;27.00;60.20